Time;durP1;ratioP1;P1;durP2;ratioP2;P2;SDS_P1;SDS_P2;PMS_P1;PMS_P2;Temp;Humidity;BMP_temperature;BMP_pressure;BME280_temperature;BME280_humidity;BME280_pressure;Samples;Min_cycle;Max_cycle;Signal;HPM_P1;HPM_P2
2022/05/29 00:02:13;;;;;;;11.85;6.45;;;;;;;16.49;100.00;94589.19;5037855;28;20044;-65
2022/05/29 00:04:40;;;;;;;9.55;6.00;;;;;;;16.54;100.00;94596.28;5033267;28;20037;-65
2022/05/29 00:07:12;;;;;;;15.07;6.60;;;;;;;16.53;100.00;94592.88;5035676;28;20059;-65
2022/05/29 00:09:47;;;;;;;11.73;6.45;;;;;;;16.47;100.00;94607.09;5033782;28;20051;-65
2022/05/29 00:12:15;;;;;;;15.70;6.35;;;;;;;16.50;100.00;94611.81;5036349;28;20033;-65
2022/05/29 00:14:43;;;;;;;13.43;5.60;;;;;;;16.56;100.00;94600.19;5032233;28;20041;-65
2022/05/29 00:17:10;;;;;;;13.70;6.30;;;;;;;16.51;100.00;94597.63;5032477;28;20041;-66
2022/05/29 00:19:37;;;;;;;13.68;6.00;;;;;;;16.56;100.00;94613.34;5030962;28;20055;-66
2022/05/29 00:22:05;;;;;;;13.98;6.55;;;;;;;16.59;100.00;94636.47;5034655;28;20048;-66
2022/05/29 00:24:32;;;;;;;12.98;5.82;;;;;;;16.63;100.00;94637.47;5034243;28;20572;-65
2022/05/29 00:26:59;;;;;;;13.30;6.45;;;;;;;16.61;100.00;94623.81;5032662;28;20056;-65
2022/05/29 00:29:25;;;;;;;12.63;5.93;;;;;;;16.54;100.00;94617.31;5035371;28;20057;-65
2022/05/29 00:31:53;;;;;;;15.75;6.38;;;;;;;16.52;100.00;94614.97;5031719;28;20045;-67
2022/05/29 00:34:20;;;;;;;11.40;7.22;;;;;;;16.39;100.00;94547.25;5032210;28;20049;-67
2022/05/29 00:36:48;;;;;;;10.43;5.90;;;;;;;16.40;100.00;94522.50;5029974;28;20049;-67
2022/05/29 00:39:16;;;;;;;19.25;7.38;;;;;;;16.31;100.00;94540.69;5030371;28;20428;-67
2022/05/29 00:41:43;;;;;;;10.95;6.25;;;;;;;16.23;100.00;94528.94;5033450;28;20514;-67
2022/05/29 00:44:18;;;;;;;10.63;5.93;;;;;;;16.20;100.00;94510.31;5034933;28;20045;-67
2022/05/29 00:46:51;;;;;;;12.55;5.30;;;;;;;16.24;100.00;94514.75;5032874;28;20094;-67
2022/05/29 00:49:21;;;;;;;9.32;4.78;;;;;;;16.17;100.00;94501.16;5034078;28;20146;-67
2022/05/29 00:51:55;;;;;;;9.35;5.00;;;;;;;16.24;100.00;94506.88;5031444;28;20045;-67
2022/05/29 00:54:22;;;;;;;9.23;4.82;;;;;;;16.19;100.00;94485.88;5034797;28;20045;-67
2022/05/29 00:56:51;;;;;;;16.60;4.72;;;;;;;16.12;100.00;94485.41;5029096;28;20049;-67
2022/05/29 00:59:31;;;;;;;8.70;3.50;;;;;;;16.05;100.00;94461.28;5029256;28;20040;-66
2022/05/29 01:02:03;;;;;;;15.32;4.47;;;;;;;15.94;100.00;94467.69;5033281;28;20057;-66
2022/05/29 01:04:38;;;;;;;10.95;3.17;;;;;;;15.81;100.00;94464.59;5033237;28;20158;-66
2022/05/29 01:07:06;;;;;;;5.72;2.92;;;;;;;16.01;100.00;94507.56;5030680;28;20060;-65
2022/05/29 01:09:39;;;;;;;10.88;3.33;;;;;;;16.00;100.00;94540.13;5031032;28;20038;-66
2022/05/29 01:12:07;;;;;;;7.70;3.33;;;;;;;15.97;100.00;94503.88;5036604;28;20893;-66
2022/05/29 01:14:54;;;;;;;8.10;3.13;;;;;;;15.89;100.00;94433.56;5028234;28;20058;-65
2022/05/29 01:17:40;;;;;;;8.25;3.40;;;;;;;15.73;100.00;94483.50;5022914;28;20052;-65
2022/05/29 01:20:12;;;;;;;9.40;3.42;;;;;;;15.75;100.00;94483.28;5035030;28;20055;-65
2022/05/29 01:23:13;;;;;;;7.05;3.10;;;;;;;15.79;100.00;94465.91;5035353;28;20045;-65
2022/05/29 01:25:58;;;;;;;10.40;3.72;;;;;;;15.81;100.00;94461.97;5031294;28;20045;-66
2022/05/29 01:28:46;;;;;;;13.18;3.78;;;;;;;15.76;100.00;94467.25;5035238;28;20518;-66
2022/05/29 01:31:24;;;;;;;10.40;3.80;;;;;;;15.79;100.00;94481.69;5033170;28;20056;-66
2022/05/29 01:34:16;;;;;;;7.53;3.67;;;;;;;15.66;100.00;94462.84;5033931;28;20049;-66
2022/05/29 01:37:05;;;;;;;10.32;4.72;;;;;;;15.64;100.00;94490.41;5030401;28;20047;-66
2022/05/29 01:39:32;;;;;;;11.77;4.28;;;;;;;15.77;100.00;94537.09;5033573;28;20053;-66
2022/05/29 01:42:07;;;;;;;9.18;4.18;;;;;;;15.77;100.00;94500.34;5034460;28;20045;-66
2022/05/29 01:44:46;;;;;;;16.25;5.00;;;;;;;15.73;100.00;94482.75;5033855;28;20049;-66
2022/05/29 01:47:31;;;;;;;16.38;6.05;;;;;;;15.64;100.00;94521.91;5034122;28;20049;-66
2022/05/29 01:50:08;;;;;;;13.40;5.40;;;;;;;15.57;100.00;94516.16;5042093;28;20037;-66
2022/05/29 01:52:42;;;;;;;10.23;4.88;;;;;;;15.64;100.00;94516.66;5041560;28;20052;-66
2022/05/29 01:55:26;;;;;;;12.55;4.57;;;;;;;15.58;100.00;94487.00;5037097;28;20071;-66
2022/05/29 01:57:58;;;;;;;11.38;4.90;;;;;;;15.53;100.00;94452.13;5038935;28;20992;-67
2022/05/29 02:00:25;;;;;;;11.10;6.20;;;;;;;15.49;100.00;94430.91;5034944;28;20072;-66
2022/05/29 02:03:05;;;;;;;17.67;6.10;;;;;;;15.35;100.00;94451.69;5030993;28;20045;-66
2022/05/29 02:06:14;;;;;;;15.57;4.75;;;;;;;15.38;100.00;94461.66;5030948;28;20055;-66
2022/05/29 02:08:44;;;;;;;9.82;4.65;;;;;;;15.35;100.00;94456.94;4961326;28;20039;-66
2022/05/29 02:11:19;;;;;;;10.30;4.95;;;;;;;15.32;100.00;94452.22;4962953;28;20050;-66
2022/05/29 02:14:03;;;;;;;12.23;5.65;;;;;;;15.28;100.00;94445.94;5001042;28;20071;-66
2022/05/29 02:16:44;;;;;;;12.50;5.15;;;;;;;15.25;100.00;94449.91;5039750;28;20056;-66
2022/05/29 02:19:33;;;;;;;14.60;4.82;;;;;;;15.24;100.00;94444.94;5034372;28;20064;-66
2022/05/29 02:22:06;;;;;;;9.52;4.35;;;;;;;15.21;100.00;94440.22;5029322;28;20045;-66
2022/05/29 02:24:38;;;;;;;15.83;5.97;;;;;;;15.17;100.00;94444.44;5027489;28;20045;-65
2022/05/29 02:27:17;;;;;;;15.82;3.92;;;;;;;15.17;100.00;94449.69;5033092;28;20103;-66
2022/05/29 02:29:45;;;;;;;20.77;4.05;;;;;;;15.20;100.00;94449.16;5032327;28;20048;-66
2022/05/29 02:32:14;;;;;;;11.07;5.32;;;;;;;15.22;100.00;94447.03;5037999;28;20052;-66
2022/05/29 02:35:20;;;;;;;9.95;4.82;;;;;;;15.21;100.00;94441.00;5055718;28;20067;-66
2022/05/29 02:38:00;;;;;;;8.35;3.15;;;;;;;15.24;100.00;94444.94;5035573;28;20102;-66
2022/05/29 02:40:36;;;;;;;16.13;4.25;;;;;;;15.24;100.00;94435.22;5032608;28;20041;-66
2022/05/29 02:43:34;;;;;;;8.98;4.75;;;;;;;15.25;100.00;94428.13;5034258;28;20541;-66
2022/05/29 02:46:28;;;;;;;10.98;3.95;;;;;;;15.24;100.00;94419.47;5035840;28;20127;-66
2022/05/29 02:49:00;;;;;;;14.57;4.30;;;;;;;15.24;100.00;94413.44;5030716;28;20037;-66
2022/05/29 02:51:50;;;;;;;10.15;4.10;;;;;;;15.30;100.00;94407.13;5035257;28;20107;-66
2022/05/29 02:54:29;;;;;;;8.52;4.13;;;;;;;15.23;100.00;94396.94;5032595;28;20055;-66
2022/05/29 02:56:58;;;;;;;9.88;3.90;;;;;;;15.17;100.00;94391.97;5033025;28;20742;-66
2022/05/29 02:59:50;;;;;;;9.13;3.53;;;;;;;15.06;100.00;94394.63;5033433;28;20045;-66
2022/05/29 03:02:38;;;;;;;8.35;3.38;;;;;;;15.09;100.00;94396.72;5033738;28;20650;-66
2022/05/29 03:05:17;;;;;;;9.60;3.20;;;;;;;15.10;100.00;94382.53;5031371;28;20096;-66
2022/05/29 03:08:12;;;;;;;10.18;3.20;;;;;;;15.10;100.00;94369.44;5064866;28;20774;-65
2022/05/29 03:10:44;;;;;;;9.35;3.30;;;;;;;15.10;100.00;94366.81;5033889;28;20265;-66
2022/05/29 03:13:30;;;;;;;11.45;4.05;;;;;;;15.12;100.00;94363.13;5035883;28;20045;-65
2022/05/29 03:16:08;;;;;;;9.27;3.15;;;;;;;15.11;100.00;94357.13;5032196;28;20049;-65
2022/05/29 03:19:12;;;;;;;6.80;2.85;;;;;;;15.17;100.00;94348.16;5031881;28;20318;-65
2022/05/29 03:22:12;;;;;;;6.22;3.30;;;;;;;15.20;100.00;94344.22;5033014;28;20041;-65
2022/05/29 03:25:06;;;;;;;8.45;3.60;;;;;;;15.21;100.00;94343.16;5038418;28;20478;-66
2022/05/29 03:27:47;;;;;;;22.30;3.80;;;;;;;15.27;100.00;94349.97;5033709;28;20036;-65
2022/05/29 03:30:52;;;;;;;9.07;2.50;;;;;;;15.36;100.00;94348.31;5037264;28;20052;-66
2022/05/29 03:33:19;;;;;;;9.13;2.95;;;;;;;15.40;100.00;94351.97;5029847;28;20053;-66
2022/05/29 03:36:06;;;;;;;8.80;3.30;;;;;;;15.37;100.00;94334.13;5033152;28;20041;-65
2022/05/29 03:38:33;;;;;;;7.60;3.05;;;;;;;15.41;100.00;94348.28;5034285;28;20055;-65
2022/05/29 03:41:06;;;;;;;6.38;2.60;;;;;;;15.35;100.00;94351.22;5036588;28;20037;-65
2022/05/29 03:43:33;;;;;;;6.15;2.90;;;;;;;15.34;100.00;94360.94;5036038;28;20472;-66
2022/05/29 03:46:00;;;;;;;5.57;2.65;;;;;;;15.32;100.00;94363.00;5040122;28;20049;-66
2022/05/29 03:48:27;;;;;;;11.90;4.20;;;;;;;15.32;100.00;94373.50;5034476;28;20824;-66
2022/05/29 03:50:54;;;;;;;10.63;3.78;;;;;;;15.25;100.00;94370.41;5039262;28;20056;-66
2022/05/29 03:53:21;;;;;;;12.75;3.92;;;;;;;15.16;100.00;94359.72;5036610;28;20052;-66
2022/05/29 03:55:55;;;;;;;8.60;4.38;;;;;;;15.21;100.00;94366.75;5039928;28;20052;-66
2022/05/29 03:58:21;;;;;;;5.97;3.22;;;;;;;15.23;100.00;94364.66;5032438;28;20053;-65
2022/05/29 04:01:01;;;;;;;7.85;3.40;;;;;;;15.26;100.00;94374.59;5039340;28;20056;-65
2022/05/29 04:03:28;;;;;;;11.07;4.05;;;;;;;15.25;100.00;94368.59;5034723;28;20048;-65
2022/05/29 04:05:55;;;;;;;6.38;3.78;;;;;;;15.24;100.00;94356.50;5037311;28;20036;-66
2022/05/29 04:13:55;;;;;;;6.93;3.47;;;;;;;15.47;100.00;94352.44;5037965;28;20431;-65
2022/05/29 04:16:21;;;;;;;7.40;3.47;;;;;;;15.53;100.00;94357.66;5037049;28;20045;-65
2022/05/29 04:18:48;;;;;;;16.02;3.95;;;;;;;15.60;100.00;94353.66;5036099;28;20052;-65
2022/05/29 04:21:15;;;;;;;7.20;3.22;;;;;;;15.75;100.00;94355.41;5032955;28;20045;-65
2022/05/29 04:23:47;;;;;;;4.35;2.70;;;;;;;15.75;100.00;94350.16;5040140;28;20064;-66
2022/05/29 04:26:15;;;;;;;6.65;2.65;;;;;;;15.83;100.00;94351.44;5047386;28;20048;-66
2022/05/29 04:28:43;;;;;;;7.82;3.15;;;;;;;15.94;100.00;94352.13;5035092;28;20076;-66
2022/05/29 04:31:10;;;;;;;12.48;4.70;;;;;;;15.90;100.00;94343.22;5035300;28;20052;-66
2022/05/29 04:33:38;;;;;;;6.30;3.40;;;;;;;16.13;100.00;94360.09;5037853;28;20040;-66
2022/05/29 04:36:05;;;;;;;14.02;4.20;;;;;;;16.14;100.00;94345.91;5033463;28;20141;-67
2022/05/29 04:38:32;;;;;;;8.73;4.43;;;;;;;16.31;100.00;94355.97;5036183;28;20037;-67
2022/05/29 04:41:06;;;;;;;5.07;2.17;;;;;;;16.45;100.00;94354.25;5037715;28;20787;-66
2022/05/29 04:43:32;;;;;;;8.10;3.15;;;;;;;16.55;100.00;94362.06;5032410;28;21455;-65
2022/05/29 04:46:00;;;;;;;6.32;2.75;;;;;;;16.61;100.00;94366.19;5029574;28;20098;-66
2022/05/29 04:48:27;;;;;;;3.92;2.03;;;;;;;16.75;100.00;94362.88;5030140;28;20056;-65
2022/05/29 04:51:03;;;;;;;8.80;2.42;;;;;;;16.84;100.00;94358.59;5037768;28;20076;-67
2022/05/29 04:53:30;;;;;;;6.53;1.75;;;;;;;16.87;100.00;94358.03;5035351;28;20041;-66
2022/05/29 04:55:59;;;;;;;10.90;2.58;;;;;;;17.10;100.00;94366.16;5036490;28;20041;-66
2022/05/29 04:58:28;;;;;;;6.85;2.17;;;;;;;17.19;100.00;94359.22;5033440;28;20060;-66
2022/05/29 05:01:00;;;;;;;10.35;2.38;;;;;;;17.29;100.00;94361.72;5038724;28;20052;-66
2022/05/29 05:03:27;;;;;;;10.90;3.28;;;;;;;17.34;100.00;94361.66;5034360;28;20126;-66
2022/05/29 05:05:54;;;;;;;8.25;1.88;;;;;;;17.46;100.00;94352.53;5036401;28;20120;-66
2022/05/29 05:08:22;;;;;;;6.78;2.15;;;;;;;17.62;100.00;94356.50;5030323;28;20045;-66
2022/05/29 05:10:49;;;;;;;9.40;2.40;;;;;;;17.73;100.00;94360.53;5035421;28;20040;-66
2022/05/29 05:13:17;;;;;;;13.18;2.53;;;;;;;17.85;100.00;94361.97;5033871;28;20496;-67
2022/05/29 05:15:43;;;;;;;5.82;2.13;;;;;;;17.98;100.00;94355.97;5034374;28;20045;-67
2022/05/29 05:18:10;;;;;;;10.30;2.28;;;;;;;18.05;100.00;94348.47;5032049;28;20043;-67
2022/05/29 05:20:38;;;;;;;12.55;2.30;;;;;;;18.30;100.00;94359.66;5031978;28;20061;-67
2022/05/29 05:23:05;;;;;;;8.70;2.30;;;;;;;18.46;100.00;94357.53;5035009;28;20048;-67
2022/05/29 05:25:32;;;;;;;8.05;2.25;;;;;;;18.62;100.00;94355.38;5033802;28;20052;-66
2022/05/29 05:27:59;;;;;;;6.50;2.42;;;;;;;18.68;100.00;94351.59;5035092;28;20052;-66
2022/05/29 05:30:26;;;;;;;9.23;2.75;;;;;;;18.68;100.00;94346.31;5032319;28;20072;-66
2022/05/29 05:32:54;;;;;;;10.70;2.75;;;;;;;18.73;100.00;94341.72;5037954;28;20057;-66
2022/05/29 05:35:21;;;;;;;9.18;2.80;;;;;;;18.75;100.00;94338.00;5032864;28;20049;-67
2022/05/29 05:37:47;;;;;;;7.72;2.47;;;;;;;18.84;100.00;94344.97;5035110;28;20045;-65
2022/05/29 05:40:15;;;;;;;6.65;2.13;;;;;;;18.99;100.00;94337.81;5033007;28;20048;-65
2022/05/29 05:42:42;;;;;;;9.25;3.20;;;;;;;19.12;100.00;94337.00;5034833;28;20098;-65
2022/05/29 05:45:11;;;;;;;7.25;1.98;;;;;;;19.26;100.00;94336.97;5033862;28;20052;-65
2022/05/29 05:47:38;;;;;;;5.70;2.13;;;;;;;19.40;99.60;94336.94;5034113;28;20899;-65
2022/05/29 05:50:10;;;;;;;10.38;2.45;;;;;;;19.41;98.43;94333.22;5033713;28;20045;-65
2022/05/29 05:52:38;;;;;;;9.95;2.17;;;;;;;19.36;96.17;94330.72;5036002;28;20052;-65
2022/05/29 05:55:08;;;;;;;11.35;3.15;;;;;;;19.51;96.72;94337.50;5032625;28;20045;-65
2022/05/29 05:57:34;;;;;;;4.93;2.00;;;;;;;19.45;95.38;94344.75;5033299;28;20057;-65
2022/05/29 06:00:14;;;;;;;3.97;2.38;;;;;;;19.55;94.64;94347.16;5034674;28;20045;-65
2022/05/29 06:02:44;;;;;;;11.20;2.20;;;;;;;19.68;93.73;94354.25;5033020;28;20051;-64
2022/05/29 06:05:12;;;;;;;7.47;2.85;;;;;;;19.81;95.37;94357.94;5033642;28;20475;-65
2022/05/29 06:07:40;;;;;;;7.45;2.80;;;;;;;19.94;95.53;94353.69;5033623;28;20049;-65
2022/05/29 06:10:08;;;;;;;9.45;2.20;;;;;;;20.04;93.50;94356.09;5039641;28;20450;-64
2022/05/29 06:12:36;;;;;;;7.68;1.88;;;;;;;20.34;93.62;94353.75;5031549;28;20040;-65
2022/05/29 06:15:05;;;;;;;7.00;2.25;;;;;;;20.56;92.55;94360.06;5036123;28;20566;-65
2022/05/29 06:17:32;;;;;;;8.13;3.20;;;;;;;20.73;92.68;94344.28;5027546;28;20048;-65
2022/05/29 06:19:59;;;;;;;9.75;2.38;;;;;;;20.85;90.85;94350.84;5038396;28;20445;-65
2022/05/29 06:22:26;;;;;;;5.97;2.22;;;;;;;20.83;89.55;94363.63;5034227;28;20049;-65
2022/05/29 06:24:53;;;;;;;6.03;2.45;;;;;;;21.01;89.86;94359.94;5062075;28;20052;-65
2022/05/29 06:27:21;;;;;;;10.60;2.30;;;;;;;21.08;89.71;94349.66;5030908;28;20033;-65
2022/05/29 06:29:47;;;;;;;7.40;2.42;;;;;;;20.95;88.73;94340.00;5032243;28;20136;-65
2022/05/29 06:32:15;;;;;;;9.60;2.58;;;;;;;20.93;90.11;94358.06;5034490;28;20048;-65
2022/05/29 06:34:42;;;;;;;10.38;3.35;;;;;;;21.08;90.08;94354.97;5033525;28;20071;-66
2022/05/29 06:37:10;;;;;;;4.25;1.63;;;;;;;21.24;90.65;94330.69;5032846;28;20048;-65
2022/05/29 06:39:38;;;;;;;6.70;2.05;;;;;;;21.17;87.64;94316.03;5032774;28;20546;-65
2022/05/29 06:42:05;;;;;;;4.85;2.15;;;;;;;21.24;90.36;94320.09;5032238;28;20036;-65
2022/05/29 06:44:48;;;;;;;13.90;2.90;;;;;;;21.22;87.53;94317.00;5031205;28;20163;-65
2022/05/29 06:47:15;;;;;;;8.73;1.52;;;;;;;21.16;86.69;94321.66;5032251;28;20037;-65
2022/05/29 06:49:51;;;;;;;7.57;2.05;;;;;;;21.28;86.70;94310.44;5032611;28;20053;-66
2022/05/29 06:52:19;;;;;;;6.80;1.92;;;;;;;21.35;87.47;94316.06;5032826;28;20874;-66
2022/05/29 06:54:46;;;;;;;12.15;2.95;;;;;;;21.32;86.93;94327.25;5026770;28;20103;-66
2022/05/29 06:57:36;;;;;;;3.78;1.60;;;;;;;21.55;86.05;94309.38;5035549;28;20048;-66
2022/05/29 07:08:32;;;;;;;15.05;1.90;;;;;;;21.66;84.51;94291.28;5040706;28;20090;-67
2022/05/29 07:11:04;;;;;;;7.43;1.67;;;;;;;21.68;83.63;94302.34;5032825;28;20048;-67
2022/05/29 07:13:32;;;;;;;6.22;1.75;;;;;;;21.65;85.32;94293.16;5040712;28;20481;-66
2022/05/29 07:15:58;;;;;;;5.05;2.28;;;;;;;21.73;83.03;94295.03;5035525;28;20044;-67
2022/05/29 07:18:25;;;;;;;5.90;1.52;;;;;;;21.94;81.22;94279.22;5039895;28;20553;-66
2022/05/29 07:20:52;;;;;;;8.75;2.03;;;;;;;21.90;79.41;94288.91;5033999;28;20053;-66
2022/05/29 07:23:19;;;;;;;9.68;2.33;;;;;;;21.67;80.10;94290.22;5041484;28;20041;-66
2022/05/29 07:25:46;;;;;;;9.38;1.40;;;;;;;21.65;79.21;94292.41;5040832;28;20052;-66
2022/05/29 07:28:13;;;;;;;9.95;1.85;;;;;;;21.73;81.72;94305.63;5037930;28;20049;-66
2022/05/29 07:30:40;;;;;;;14.35;1.92;;;;;;;21.76;80.37;94298.94;5039028;28;20079;-66
2022/05/29 07:33:07;;;;;;;7.88;1.95;;;;;;;22.02;82.54;94295.44;5037063;28;20059;-67
2022/05/29 07:35:35;;;;;;;3.97;1.65;;;;;;;22.18;82.89;94288.53;5034271;28;20055;-68
2022/05/29 07:38:02;;;;;;;7.38;1.58;;;;;;;22.49;82.16;94293.59;5043250;28;21575;-65
2022/05/29 07:40:29;;;;;;;10.45;1.73;;;;;;;22.68;80.77;94289.75;5041748;28;20059;-66
2022/05/29 07:45:45;;;;;;;10.10;1.83;;;;;;;22.85;77.01;94294.97;5038162;28;20106;-66
2022/05/29 07:48:14;;;;;;;7.00;2.83;;;;;;;23.00;71.84;94296.28;5039789;28;20040;-66
2022/05/29 07:50:41;;;;;;;8.50;2.17;;;;;;;23.06;72.52;94300.31;5039078;28;20052;-66
2022/05/29 07:53:08;;;;;;;10.25;1.65;;;;;;;23.27;74.66;94305.66;5035203;28;20056;-66
2022/05/29 07:55:37;;;;;;;6.80;1.55;;;;;;;23.42;73.78;94296.31;5038094;28;20044;-66
2022/05/29 07:58:06;;;;;;;7.00;1.50;;;;;;;23.61;72.87;94297.75;5033767;28;20049;-66
2022/05/29 08:00:34;;;;;;;7.15;1.70;;;;;;;23.66;71.94;94284.25;5036444;28;20107;-66
2022/05/29 08:03:03;;;;;;;6.65;1.58;;;;;;;23.71;69.65;94278.72;5036455;28;20048;-66
2022/05/29 08:05:34;;;;;;;10.75;1.85;;;;;;;23.64;69.71;94273.16;5032251;28;20056;-68
2022/05/29 08:08:04;;;;;;;16.13;2.47;;;;;;;23.73;73.06;94279.16;5035210;28;20045;-66
2022/05/29 08:10:33;;;;;;;9.30;2.25;;;;;;;23.88;70.34;94285.00;5034332;28;20041;-67
2022/05/29 08:13:00;;;;;;;13.85;1.77;;;;;;;23.88;69.79;94282.31;5033379;28;20092;-66
2022/05/29 08:15:26;;;;;;;5.68;1.40;;;;;;;24.08;72.53;94289.47;5035637;28;20626;-66
2022/05/29 08:17:53;;;;;;;6.38;1.85;;;;;;;24.01;69.05;94281.28;5037249;28;20772;-66
2022/05/29 08:20:20;;;;;;;7.25;2.00;;;;;;;24.12;69.82;94282.41;5033795;28;20041;-67
2022/05/29 08:22:47;;;;;;;5.43;1.50;;;;;;;24.24;70.53;94287.72;5034664;28;20040;-67
2022/05/29 08:30:51;;;;;;;14.23;1.88;;;;;;;24.30;68.98;94279.53;5033887;28;20037;-67
2022/05/29 08:33:24;;;;;;;8.00;2.08;;;;;;;24.37;67.12;94274.44;5038259;28;20132;-66
2022/05/29 08:36:01;;;;;;;9.98;2.05;;;;;;;24.44;69.11;94266.69;5035762;28;20514;-68
2022/05/29 08:38:29;;;;;;;9.07;1.55;;;;;;;24.54;66.71;94274.28;5033385;28;20045;-67
2022/05/29 08:41:02;;;;;;;6.38;2.13;;;;;;;24.71;67.67;94272.50;5032460;28;20041;-67
2022/05/29 08:43:32;;;;;;;4.60;2.20;;;;;;;24.96;67.67;94263.34;5034797;28;20057;-67
2022/05/29 08:46:16;;;;;;;3.45;1.42;;;;;;;25.12;65.94;94254.66;5032929;28;20715;-67
2022/05/29 08:48:46;;;;;;;4.75;1.75;;;;;;;25.25;65.66;94256.22;5033332;28;20056;-67
2022/05/29 08:51:32;;;;;;;11.88;2.05;;;;;;;25.39;63.11;94253.16;5034402;28;20131;-67
2022/05/29 08:54:10;;;;;;;5.80;2.03;;;;;;;25.46;63.08;94257.91;5035963;28;20521;-67
2022/05/29 08:56:55;;;;;;;10.45;1.77;;;;;;;25.78;63.08;94250.00;5034745;28;20071;-67
2022/05/29 08:59:58;;;;;;;7.00;2.10;;;;;;;25.91;59.29;94251.47;5032335;28;20041;-67
2022/05/29 09:02:56;;;;;;;10.63;1.85;;;;;;;25.72;57.88;94255.56;5034479;28;20282;-67
2022/05/29 09:05:46;;;;;;;5.93;2.08;;;;;;;25.84;59.29;94259.28;5036122;28;20543;-67
2022/05/29 09:08:51;;;;;;;5.05;2.10;;;;;;;25.87;55.64;94261.28;5034408;28;20045;-67
2022/05/29 09:11:31;;;;;;;4.50;1.52;;;;;;;25.93;55.55;94257.28;4986852;28;20060;-67
2022/05/29 09:14:23;;;;;;;10.93;2.78;;;;;;;25.93;55.93;94259.97;5037095;28;20040;-67
2022/05/29 09:17:04;;;;;;;5.38;1.42;;;;;;;26.11;54.87;94261.16;5034482;28;20147;-67
2022/05/29 09:19:38;;;;;;;4.90;1.60;;;;;;;26.34;55.15;94255.22;5032163;28;20044;-67
2022/05/29 09:36:44;;;;;;;7.25;1.27;;;;;;;26.59;54.68;94241.69;5054314;22;20060;-66
2022/05/29 09:39:17;;;;;;;4.43;2.30;;;;;;;26.57;53.99;94234.00;5009566;28;20096;-67
2022/05/29 09:42:00;;;;;;;11.43;1.75;;;;;;;26.46;52.59;94233.78;5017149;28;20099;-66
2022/05/29 09:44:30;;;;;;;6.72;2.58;;;;;;;26.55;53.46;94230.94;5017383;28;20056;-66
2022/05/29 09:50:10;;;;;;;12.60;2.75;;;;;;;26.87;54.80;94225.56;5016510;28;20038;-66
2022/05/29 09:52:41;;;;;;;6.65;2.45;;;;;;;26.89;54.29;94229.41;5016429;28;20048;-66
2022/05/29 09:55:23;;;;;;;11.18;3.17;;;;;;;27.24;53.17;94212.56;5014851;28;20049;-66
2022/05/29 09:57:55;;;;;;;8.73;2.00;;;;;;;27.48;53.20;94205.41;5018314;28;20037;-66
2022/05/29 10:00:28;;;;;;;6.78;2.22;;;;;;;27.49;51.50;94216.88;5016714;28;20075;-67
2022/05/29 10:02:56;;;;;;;8.25;2.15;;;;;;;27.46;50.05;94213.03;5016236;28;20048;-67
2022/05/29 10:05:33;;;;;;;11.30;2.15;;;;;;;27.57;52.07;94200.63;5016591;28;20041;-67
2022/05/29 10:08:28;;;;;;;6.82;2.35;;;;;;;27.77;52.81;94189.88;5010714;28;20038;-67
2022/05/29 10:10:54;;;;;;;14.18;1.77;;;;;;;27.78;50.35;94191.41;5009505;28;20440;-68
2022/05/29 10:13:37;;;;;;;7.32;1.77;;;;;;;27.90;51.23;94188.59;5008070;28;20524;-68
2022/05/29 10:16:30;;;;;;;9.32;2.50;;;;;;;27.86;48.48;94198.44;4997224;28;20049;-68
2022/05/29 10:18:57;;;;;;;9.65;2.03;;;;;;;27.89;46.81;94187.00;5005388;28;20460;-68
2022/05/29 10:21:30;;;;;;;9.35;2.40;;;;;;;27.86;47.02;94193.09;5013139;28;20057;-68
2022/05/29 10:24:11;;;;;;;6.45;2.08;;;;;;;27.86;47.55;94182.38;5007198;28;20049;-69
2022/05/29 10:26:38;;;;;;;10.70;1.48;;;;;;;27.92;46.62;94186.31;5013494;28;20045;-67
2022/05/29 10:29:18;;;;;;;7.35;1.63;;;;;;;28.05;46.58;94188.81;5008100;28;20539;-66
2022/05/29 10:31:50;;;;;;;6.72;1.63;;;;;;;27.96;46.04;94179.13;5009484;28;20049;-66
2022/05/29 10:34:26;;;;;;;6.55;1.48;;;;;;;27.99;45.66;94186.44;5009528;28;20440;-67
2022/05/29 10:36:53;;;;;;;12.43;3.42;;;;;;;28.18;45.38;94177.59;5014628;28;20696;-67
2022/05/29 10:39:22;;;;;;;4.50;2.22;;;;;;;28.29;43.99;94172.38;5009462;28;20034;-67
2022/05/29 10:41:51;;;;;;;12.98;2.17;;;;;;;28.30;44.83;94176.59;5007765;28;20049;-66
2022/05/29 10:44:49;;;;;;;4.50;2.22;;;;;;;28.36;44.44;94167.16;5014103;28;20069;-66
2022/05/29 10:47:16;;;;;;;8.27;2.70;;;;;;;28.00;43.85;94174.63;5030812;28;20058;-67
2022/05/29 10:50:05;;;;;;;4.65;2.00;;;;;;;28.03;44.06;94176.56;5016539;28;20037;-67
2022/05/29 10:53:49;;;;;;;8.07;2.38;;;;;;;28.32;45.01;94170.88;5018221;28;20900;-67
2022/05/29 10:56:28;;;;;;;;;;;;;;;28.59;45.26;94169.78;4957643;28;20058;-67
2022/05/29 10:59:11;;;;;;;4.15;1.58;;;;;;;28.56;44.26;94164.38;5004600;28;20571;-67
2022/05/29 11:05:13;;;;;;;5.03;1.55;;;;;;;29.32;43.13;94150.00;5009229;28;20048;-68
2022/05/29 11:08:08;;;;;;;8.32;2.33;;;;;;;29.88;43.83;94149.03;5015516;28;20044;-68
2022/05/29 11:10:49;;;;;;;8.93;2.55;;;;;;;29.89;40.64;94150.59;5006367;28;20057;-69
2022/05/29 11:14:04;;;;;;;6.93;2.28;;;;;;;29.75;41.37;94142.41;5000838;28;20037;-68
2022/05/29 11:16:33;;;;;;;9.27;2.88;;;;;;;29.95;41.26;94144.88;4992188;28;20527;-69
2022/05/29 11:19:29;;;;;;;9.60;2.60;;;;;;;30.05;39.69;94126.16;5012463;28;20026;-68
2022/05/29 11:22:08;;;;;;;9.18;2.10;;;;;;;30.03;39.98;94123.06;4997301;28;20111;-68
2022/05/29 11:24:59;;;;;;;8.15;2.88;;;;;;;29.95;39.69;94126.09;5014434;28;20041;-68
2022/05/29 11:27:45;;;;;;;6.90;2.67;;;;;;;30.05;40.49;94120.00;5007705;28;20542;-69
2022/05/29 11:30:41;;;;;;;10.00;2.58;;;;;;;29.83;40.50;94114.47;5010863;28;20041;-68
2022/05/29 11:33:45;;;;;;;11.05;2.90;;;;;;;30.15;40.46;94097.84;4997950;28;20751;-68
2022/05/29 11:36:15;;;;;;;10.18;2.63;;;;;;;30.22;40.01;94089.06;5019571;28;20055;-68
2022/05/29 11:39:00;;;;;;;10.50;2.53;;;;;;;30.30;40.38;94072.59;5015177;28;20050;-68
2022/05/29 11:41:40;;;;;;;9.70;2.88;;;;;;;30.21;40.48;94074.84;5019618;28;20060;-68
2022/05/29 11:44:34;;;;;;;9.90;3.38;;;;;;;30.28;39.12;94048.03;5018604;28;20044;-68
2022/05/29 11:53:04;;;;;;;8.60;3.38;;;;;;;30.15;39.68;94044.13;5020013;28;20551;-68
2022/05/29 11:55:41;;;;;;;11.88;5.05;;;;;;;30.08;39.83;94044.09;5017122;28;20549;-68
2022/05/29 11:58:18;;;;;;;16.98;4.10;;;;;;;30.17;38.85;94047.22;4999979;28;20045;-68
2022/05/29 12:01:30;;;;;;;14.23;4.40;;;;;;;29.93;40.36;94044.00;5001059;28;20049;-69
2022/05/29 12:04:32;;;;;;;13.13;3.95;;;;;;;29.99;39.88;94014.91;4983208;28;20053;-68
2022/05/29 12:07:18;;;;;;;11.40;3.97;;;;;;;29.76;40.35;94009.00;5020952;28;20737;-68
2022/05/29 12:10:10;;;;;;;9.68;3.05;;;;;;;29.68;41.64;94016.97;5020453;28;20045;-67
2022/05/29 12:12:57;;;;;;;7.13;4.28;;;;;;;29.84;40.43;94016.72;5001427;28;20049;-67
2022/05/29 12:15:24;;;;;;;8.25;3.72;;;;;;;29.79;40.72;93998.28;5018164;28;20041;-66
2022/05/29 12:18:04;;;;;;;14.13;4.95;;;;;;;29.93;41.29;94011.81;5021697;28;20139;-68
2022/05/29 12:20:37;;;;;;;18.23;4.93;;;;;;;30.20;41.92;94000.81;5023368;28;20053;-67
2022/05/29 12:23:37;;;;;;;7.85;4.88;;;;;;;30.49;40.67;94006.34;5002598;28;20160;-68
2022/05/29 12:26:10;;;;;;;9.30;5.03;;;;;;;30.96;40.95;93993.84;5010913;28;20132;-67
2022/05/29 12:28:42;;;;;;;12.80;5.72;;;;;;;30.91;39.77;94007.63;5023559;28;20554;-67
2022/05/29 12:31:17;;;;;;;6.80;4.43;;;;;;;31.18;40.08;93991.94;5020786;28;20044;-67
2022/05/29 12:33:47;;;;;;;13.38;5.13;;;;;;;31.58;38.94;93978.50;5021172;28;20053;-68
2022/05/29 12:36:27;;;;;;;9.60;4.15;;;;;;;31.36;38.62;93983.88;5020044;28;20068;-67
2022/05/29 12:38:57;;;;;;;11.93;4.82;;;;;;;31.30;38.97;93984.66;5022117;28;20080;-67
2022/05/29 12:41:55;;;;;;;6.43;4.40;;;;;;;31.40;38.73;93984.66;5019200;28;20657;-67
2022/05/29 12:44:36;;;;;;;11.30;4.82;;;;;;;31.09;39.08;93980.03;5018923;28;20041;-67
2022/05/29 12:47:06;;;;;;;17.77;5.47;;;;;;;30.97;39.43;93987.31;5019609;28;20061;-67
2022/05/29 12:49:42;;;;;;;10.70;4.88;;;;;;;31.17;39.31;93981.56;5020625;28;20068;-67
2022/05/29 12:52:21;;;;;;;14.68;4.65;;;;;;;31.19;39.63;93984.66;5023418;28;20056;-67
2022/05/29 12:55:13;;;;;;;16.58;5.43;;;;;;;31.34;39.25;93990.78;5020470;28;20051;-67